createdAt,value
2023-04-10T00:00:30.949Z,7.50
2023-04-10T00:01:53.916Z,7.47
2023-04-10T00:02:57.137Z,7.43
2023-04-10T00:04:00.458Z,7.42
2023-04-10T00:05:04.199Z,7.40
2023-04-10T00:06:07.732Z,7.39
2023-04-10T00:07:11.269Z,7.38
2023-04-10T00:08:14.500Z,7.36
2023-04-10T00:09:17.477Z,7.34
2023-04-10T00:10:20.781Z,7.32
2023-04-10T00:11:25.351Z,7.31
2023-04-10T00:12:28.301Z,7.27
2023-04-10T00:13:31.364Z,7.26
2023-04-10T00:14:34.207Z,7.26
2023-04-10T00:15:37.077Z,7.25
2023-04-10T00:16:40.234Z,7.28
2023-04-10T00:17:43.214Z,7.26
2023-04-10T00:18:47.239Z,7.25
2023-04-10T00:19:50.143Z,7.22
2023-04-10T00:20:53.414Z,7.20
2023-04-10T00:21:56.755Z,7.23
2023-04-10T00:22:59.734Z,7.20
2023-04-10T00:24:02.616Z,7.21
2023-04-10T00:25:06.626Z,7.17
2023-04-10T00:26:09.806Z,7.17
2023-04-10T00:27:13.114Z,7.19
2023-04-10T00:28:17.331Z,7.16
2023-04-10T00:29:20.462Z,7.15
2023-04-10T00:30:23.466Z,7.14
2023-04-10T00:31:26.478Z,7.13
2023-04-10T00:32:29.428Z,7.14
2023-04-10T00:33:32.351Z,7.14
2023-04-10T00:34:35.565Z,7.14
2023-04-10T00:35:38.861Z,7.14
2023-04-10T00:36:42.012Z,7.10
2023-04-10T00:37:44.876Z,7.13
2023-04-10T00:38:48.848Z,7.12
2023-04-10T00:39:51.708Z,7.09
2023-04-10T00:40:54.544Z,7.07
2023-04-10T00:41:57.772Z,7.07
2023-04-10T00:43:00.837Z,7.06
2023-04-10T00:44:03.764Z,7.05
2023-04-10T00:45:07.420Z,7.06
2023-04-10T00:46:10.746Z,7.03
2023-04-10T00:47:14.412Z,7.02
2023-04-10T00:48:17.565Z,7.01
2023-04-10T00:49:21.969Z,7.01
2023-04-10T00:50:24.861Z,6.97
2023-04-10T00:51:27.957Z,6.96
2023-04-10T00:52:32.504Z,6.97
2023-04-10T00:53:35.702Z,6.94
2023-04-10T00:54:38.773Z,6.94
2023-04-10T00:55:41.856Z,6.93
2023-04-10T00:56:46.678Z,6.89
2023-04-10T00:57:49.601Z,6.90
2023-04-10T00:58:52.712Z,6.85
2023-04-10T00:59:56.124Z,6.83
2023-04-10T01:00:59.068Z,6.85
2023-04-10T01:02:02.648Z,6.83
2023-04-10T01:03:06.053Z,6.82
2023-04-10T01:04:11.042Z,6.82
2023-04-10T01:05:14.375Z,6.81
2023-04-10T01:06:45.126Z,6.83
2023-04-10T01:08:12.885Z,6.78
2023-04-10T01:09:34.189Z,6.75
2023-04-10T01:10:48.644Z,6.72
2023-04-10T01:11:59.198Z,6.75
2023-04-10T01:13:20.459Z,6.74
2023-04-10T01:15:00.741Z,6.69
2023-04-10T01:16:20.753Z,6.70
2023-04-10T01:17:41.643Z,6.69
2023-04-10T01:18:49.971Z,6.69
2023-04-10T01:20:07.147Z,6.73
2023-04-10T01:21:14.927Z,6.73
2023-04-10T01:22:21.886Z,6.73
2023-04-10T01:23:44.562Z,6.73
2023-04-10T01:25:02.050Z,6.73
2023-04-10T01:26:07.433Z,6.73
2023-04-10T01:27:40.409Z,6.72
2023-04-10T01:28:49.540Z,6.69
2023-04-10T01:29:56.766Z,6.73
2023-04-10T01:31:02.783Z,6.72
2023-04-10T01:32:13.924Z,6.69
2023-04-10T01:33:20.706Z,6.70
2023-04-10T01:34:46.818Z,6.67
2023-04-10T01:35:56.470Z,6.66
2023-04-10T01:37:02.387Z,6.64
2023-04-10T01:38:07.308Z,6.61
2023-04-10T01:39:11.365Z,6.63
2023-04-10T01:40:16.643Z,6.60
2023-04-10T01:41:22.097Z,6.62
2023-04-10T01:42:31.232Z,6.61
2023-04-10T01:43:34.984Z,6.60
2023-04-10T01:44:42.173Z,6.56
2023-04-10T01:45:47.872Z,6.58
2023-04-10T01:46:51.768Z,6.54
2023-04-10T01:47:56.264Z,6.55
2023-04-10T01:49:02.411Z,6.55
2023-04-10T01:50:06.973Z,6.54
2023-04-10T01:51:11.747Z,6.50
2023-04-10T01:52:15.960Z,6.48
2023-04-10T01:53:24.811Z,6.48
2023-04-10T01:54:29.013Z,6.45
2023-04-10T01:55:33.476Z,6.44
2023-04-10T01:56:42.616Z,6.45
2023-04-10T01:57:49.167Z,6.42
2023-04-10T01:58:53.017Z,6.37
2023-04-10T01:59:55.950Z,6.38
2023-04-10T02:00:58.937Z,6.37
2023-04-10T02:02:02.271Z,6.36
2023-04-10T02:03:05.469Z,6.33
2023-04-10T02:04:08.494Z,6.33
2023-04-10T02:05:11.651Z,6.31
2023-04-10T02:06:44.937Z,6.30
2023-04-10T02:08:13.199Z,6.26
2023-04-10T02:09:27.934Z,6.24
2023-04-10T02:10:51.139Z,6.25
2023-04-10T02:12:05.975Z,6.26
2023-04-10T02:13:11.757Z,6.23
2023-04-10T02:14:18.302Z,6.21
2023-04-10T02:15:27.574Z,6.22
2023-04-10T02:16:32.043Z,6.21
2023-04-10T02:17:37.371Z,6.18
2023-04-10T02:18:42.620Z,6.16
2023-04-10T02:19:48.439Z,6.13
2023-04-10T02:20:52.774Z,6.09
2023-04-10T02:21:57.037Z,6.10
2023-04-10T02:23:03.838Z,6.09
2023-04-10T02:24:07.238Z,6.05
2023-04-10T02:25:10.621Z,6.07
2023-04-10T02:26:13.470Z,6.08
2023-04-10T02:27:16.641Z,6.07
2023-04-10T02:28:19.530Z,6.02
2023-04-10T02:29:22.771Z,6.00
2023-04-10T02:30:26.008Z,5.99
2023-04-10T02:31:29.088Z,5.98
2023-04-10T02:32:35.314Z,5.97
2023-04-10T02:33:38.229Z,5.99
2023-04-10T02:34:43.839Z,5.97
2023-04-10T02:35:46.749Z,5.99
2023-04-10T02:36:49.648Z,5.96
2023-04-10T02:37:52.790Z,5.97
2023-04-10T02:38:55.868Z,5.97
2023-04-10T02:39:59.678Z,5.96
2023-04-10T02:41:02.906Z,5.95
2023-04-10T02:42:05.838Z,5.93
2023-04-10T02:43:08.876Z,5.92
2023-04-10T02:44:11.753Z,5.90
2023-04-10T02:45:14.717Z,5.89
2023-04-10T02:46:18.897Z,5.88
2023-04-10T02:47:22.030Z,5.87
2023-04-10T02:48:25.061Z,5.86
2023-04-10T02:49:31.692Z,5.87
2023-04-10T02:50:35.738Z,5.86
2023-04-10T02:51:38.626Z,5.86
2023-04-10T02:52:42.171Z,5.85
2023-04-10T02:53:45.393Z,5.84
2023-04-10T02:54:52.861Z,5.83
2023-04-10T02:55:56.048Z,5.81
2023-04-10T02:56:59.038Z,5.78
2023-04-10T02:58:01.914Z,5.76
2023-04-10T02:59:05.125Z,5.75
2023-04-10T03:00:10.323Z,5.73
2023-04-10T03:01:55.104Z,5.72
2023-04-10T03:02:58.362Z,5.70
2023-04-10T03:04:04.395Z,5.68
2023-04-10T03:05:11.830Z,5.66
2023-04-10T03:06:14.898Z,5.62
2023-04-10T03:07:19.073Z,5.60
2023-04-10T03:08:22.421Z,5.61
2023-04-10T03:09:26.553Z,5.59
2023-04-10T03:10:30.033Z,5.57
2023-04-10T03:11:33.245Z,5.59
2023-04-10T03:12:37.135Z,5.54
2023-04-10T03:13:40.005Z,5.54
2023-04-10T03:14:42.851Z,5.53
2023-04-10T03:15:45.714Z,5.55
2023-04-10T03:16:48.797Z,5.51
2023-04-10T03:17:51.980Z,5.50
2023-04-10T03:18:54.881Z,5.49
2023-04-10T03:19:57.963Z,5.47
2023-04-10T03:21:02.185Z,5.48
2023-04-10T03:22:05.097Z,5.48
2023-04-10T03:23:08.113Z,5.44
2023-04-10T03:24:11.430Z,5.47
2023-04-10T03:25:14.482Z,5.44
2023-04-10T03:26:17.414Z,5.43
2023-04-10T03:27:20.816Z,5.42
2023-04-10T03:28:23.911Z,5.38
2023-04-10T03:29:26.772Z,5.37
2023-04-10T03:30:31.504Z,5.36
2023-04-10T03:31:34.433Z,5.36
2023-04-10T03:32:37.944Z,5.36
2023-04-10T03:33:41.044Z,5.35
2023-04-10T03:34:43.975Z,5.38
2023-04-10T03:35:47.553Z,5.36
2023-04-10T03:36:50.597Z,5.34
2023-04-10T03:37:53.508Z,5.33
2023-04-10T03:38:56.537Z,5.31
2023-04-10T03:39:59.463Z,5.34
2023-04-10T03:41:02.449Z,5.32
2023-04-10T03:42:07.042Z,5.30
2023-04-10T03:43:09.916Z,5.33
2023-04-10T03:44:12.880Z,5.31
2023-04-10T03:45:15.832Z,5.30
2023-04-10T03:46:18.734Z,5.31
2023-04-10T03:47:21.743Z,5.29
2023-04-10T03:48:30.715Z,5.27
2023-04-10T03:49:33.860Z,5.28
2023-04-10T03:50:40.689Z,5.26
2023-04-10T03:51:43.598Z,5.21
2023-04-10T03:52:46.507Z,5.23
2023-04-10T03:53:51.843Z,5.21
2023-04-10T03:54:55.674Z,5.22
2023-04-10T03:56:03.255Z,5.22
2023-04-10T03:57:06.178Z,5.22
2023-04-10T03:58:09.331Z,5.21
2023-04-10T03:59:13.363Z,5.21
2023-04-10T04:00:17.407Z,5.21
2023-04-10T04:01:23.358Z,5.22
2023-04-10T04:02:36.188Z,5.26
2023-04-10T04:03:39.801Z,5.23
2023-04-10T04:05:02.852Z,5.27
2023-04-10T04:06:19.893Z,5.28
2023-04-10T04:07:59.325Z,5.22
2023-04-10T04:09:13.613Z,5.26
2023-04-10T04:10:42.644Z,5.23
2023-04-10T04:11:53.576Z,5.26
2023-04-10T04:13:11.477Z,5.26
2023-04-10T04:14:25.452Z,5.24
2023-04-10T04:16:00.170Z,5.24
2023-04-10T04:17:15.393Z,5.30
2023-04-10T04:18:41.220Z,5.31
2023-04-10T04:20:07.684Z,5.29
2023-04-10T04:21:34.501Z,5.28
2023-04-10T04:23:03.388Z,5.29
2023-04-10T04:24:38.229Z,5.30
2023-04-10T04:25:52.883Z,5.36
2023-04-10T04:27:08.073Z,5.39
2023-04-10T04:28:23.630Z,5.40
2023-04-10T04:29:55.770Z,5.39
2023-04-10T04:31:02.662Z,5.44
2023-04-10T04:32:37.648Z,5.41
2023-04-10T04:34:00.629Z,5.49
2023-04-10T04:35:26.060Z,5.46
2023-04-10T04:36:47.990Z,5.53
2023-04-10T04:38:09.302Z,5.53
2023-04-10T04:39:27.103Z,5.58
2023-04-10T04:41:07.770Z,5.58
2023-04-10T04:42:33.404Z,5.60
2023-04-10T04:43:43.471Z,5.69
2023-04-10T04:44:57.766Z,5.67
2023-04-10T04:46:04.092Z,5.72
2023-04-10T04:47:25.943Z,5.70
2023-04-10T04:49:04.027Z,5.70
2023-04-10T04:50:29.920Z,5.71
2023-04-10T04:51:53.131Z,5.74
2023-04-10T04:53:13.477Z,5.77
2023-04-10T04:54:25.008Z,5.80
2023-04-10T04:55:46.508Z,5.85
2023-04-10T04:57:14.996Z,5.84
2023-04-10T04:58:41.325Z,5.89
2023-04-10T05:00:10.947Z,5.91
2023-04-10T05:01:39.823Z,5.95
2023-04-10T05:03:12.422Z,5.98
2023-04-10T05:04:49.163Z,6.03
2023-04-10T05:06:10.654Z,6.07
2023-04-10T05:07:45.017Z,6.11
2023-04-10T05:09:06.730Z,6.20
2023-04-10T05:10:28.316Z,6.23
2023-04-10T05:11:47.911Z,6.25
2023-04-10T05:13:09.500Z,6.31
2023-04-10T05:14:23.409Z,6.35
2023-04-10T05:15:37.856Z,6.38
2023-04-10T05:16:50.053Z,6.41
2023-04-10T05:18:19.784Z,6.42
2023-04-10T05:19:34.495Z,6.50
2023-04-10T05:20:56.184Z,6.56
2023-04-10T05:22:21.864Z,6.57
2023-04-10T05:23:43.252Z,6.60
2023-04-10T05:25:05.572Z,6.65
2023-04-10T05:26:31.250Z,6.70
2023-04-10T05:27:56.166Z,6.75
2023-04-10T05:29:34.793Z,6.82
2023-04-10T05:30:57.997Z,6.87
2023-04-10T05:32:20.868Z,6.96
2023-04-10T05:33:50.125Z,6.99
2023-04-10T05:35:02.158Z,7.10
2023-04-10T05:36:19.609Z,7.15
2023-04-10T05:37:30.372Z,7.17
2023-04-10T05:38:51.579Z,7.27
2023-04-10T05:40:14.941Z,7.28
2023-04-10T05:41:45.201Z,7.35
2023-04-10T05:43:06.663Z,7.44
2023-04-10T05:44:27.934Z,7.56
2023-04-10T05:45:33.376Z,7.62
2023-04-10T05:46:52.901Z,7.65
2023-04-10T05:47:59.023Z,7.74
2023-04-10T05:49:22.567Z,7.77
2023-04-10T05:50:43.786Z,7.83
2023-04-10T05:51:52.105Z,7.95
2023-04-10T05:53:13.372Z,8.01
2023-04-10T05:54:35.119Z,8.04
2023-04-10T05:55:57.663Z,8.10
2023-04-10T05:57:18.676Z,8.17
2023-04-10T05:58:56.677Z,8.21
2023-04-10T06:00:35.023Z,8.28
2023-04-10T06:02:02.282Z,8.39
2023-04-10T06:03:05.522Z,8.50
2023-04-10T06:04:09.016Z,8.60
2023-04-10T06:05:12.773Z,8.76
2023-04-10T06:06:16.505Z,8.89
2023-04-10T06:07:19.326Z,9.05
2023-04-10T06:08:23.050Z,9.15
2023-04-10T06:09:25.915Z,9.34
2023-04-10T06:10:31.222Z,9.50
2023-04-10T06:11:34.188Z,9.66
2023-04-10T06:12:37.245Z,9.93
2023-04-10T06:13:40.624Z,10.11
2023-04-10T06:14:43.655Z,10.25
2023-04-10T06:15:47.859Z,10.36
2023-04-10T06:16:50.792Z,10.50
2023-04-10T06:17:54.235Z,10.65
2023-04-10T06:18:57.343Z,10.84
2023-04-10T06:20:04.701Z,11.10
2023-04-10T06:21:08.005Z,11.39
2023-04-10T06:22:11.026Z,11.64
2023-04-10T06:23:14.223Z,11.83
2023-04-10T06:24:17.146Z,12.07
2023-04-10T06:25:23.220Z,12.26
2023-04-10T06:26:30.360Z,12.42
2023-04-10T06:27:35.915Z,12.48
2023-04-10T06:28:38.862Z,12.59
2023-04-10T06:29:42.216Z,12.67
2023-04-10T06:30:45.529Z,12.87
2023-04-10T06:31:48.976Z,13.04
2023-04-10T06:32:53.724Z,13.30
2023-04-10T06:33:56.845Z,13.43
2023-04-10T06:34:59.865Z,13.50
2023-04-10T06:36:04.114Z,13.53
2023-04-10T06:37:09.684Z,13.62
2023-04-10T06:38:13.293Z,13.86
2023-04-10T06:39:16.296Z,13.95
2023-04-10T06:40:19.171Z,14.12
2023-04-10T06:41:22.054Z,14.30
2023-04-10T06:42:29.294Z,14.52
2023-04-10T06:43:38.092Z,14.56
2023-04-10T06:44:40.972Z,14.65
2023-04-10T06:45:43.891Z,14.82
2023-04-10T06:46:46.833Z,15.02
2023-04-10T06:47:49.896Z,15.22
2023-04-10T06:48:53.108Z,15.38
2023-04-10T06:49:56.264Z,15.54
2023-04-10T06:51:02.276Z,15.68
2023-04-10T06:52:05.891Z,15.84
2023-04-10T06:53:08.884Z,16.01
2023-04-10T06:54:11.839Z,16.14
2023-04-10T06:55:14.869Z,16.24
2023-04-10T06:56:17.898Z,16.34
2023-04-10T06:57:21.338Z,16.42
2023-04-10T06:58:24.781Z,16.51
2023-04-10T06:59:27.735Z,16.60
2023-04-10T07:00:31.066Z,16.60
2023-04-10T07:01:34.090Z,16.55
2023-04-10T07:02:37.240Z,16.60
2023-04-10T07:03:40.183Z,16.69
2023-04-10T07:04:43.004Z,16.78
2023-04-10T07:05:46.294Z,16.89
2023-04-10T07:06:49.143Z,16.98
2023-04-10T07:07:52.050Z,17.01
2023-04-10T07:08:55.101Z,17.00
2023-04-10T07:09:58.697Z,17.02
2023-04-10T07:11:01.668Z,17.01
2023-04-10T07:12:05.576Z,17.04
2023-04-10T07:13:08.536Z,17.10
2023-04-10T07:14:11.892Z,17.14
2023-04-10T07:15:14.896Z,17.26
2023-04-10T07:16:18.654Z,17.44
2023-04-10T07:17:22.187Z,17.63
2023-04-10T07:18:25.081Z,17.71
2023-04-10T07:19:28.201Z,17.72
2023-04-10T07:20:31.069Z,17.72
2023-04-10T07:21:33.998Z,17.65
2023-04-10T07:22:36.856Z,17.61
2023-04-10T07:23:39.888Z,17.65
2023-04-10T07:24:42.806Z,17.67
2023-04-10T07:25:46.696Z,17.77
2023-04-10T07:26:49.714Z,17.81
2023-04-10T07:27:52.554Z,17.85
2023-04-10T07:28:55.655Z,17.87
2023-04-10T07:29:58.727Z,18.00
2023-04-10T07:31:01.800Z,18.04
2023-04-10T07:32:05.113Z,18.07
2023-04-10T07:33:08.334Z,18.14
2023-04-10T07:34:12.100Z,18.19
2023-04-10T07:35:15.141Z,18.24
2023-04-10T07:36:18.160Z,18.24
2023-04-10T07:37:21.112Z,18.26
2023-04-10T07:38:24.814Z,18.27
2023-04-10T07:39:27.710Z,18.20
2023-04-10T07:40:30.888Z,18.18
2023-04-10T07:41:33.963Z,18.23
2023-04-10T07:42:36.977Z,18.30
2023-04-10T07:43:39.808Z,18.38
2023-04-10T07:44:42.692Z,18.44
2023-04-10T07:45:47.397Z,18.43
2023-04-10T07:46:52.384Z,18.40
2023-04-10T07:47:55.487Z,18.43
2023-04-10T07:48:58.483Z,18.48
2023-04-10T07:50:01.510Z,18.53
2023-04-10T07:51:05.222Z,18.61
2023-04-10T07:52:08.113Z,18.68
2023-04-10T07:53:11.122Z,18.77
2023-04-10T07:54:14.100Z,18.73
2023-04-10T07:55:17.154Z,18.63
2023-04-10T07:56:21.924Z,18.62
2023-04-10T07:57:24.827Z,18.55
2023-04-10T07:58:27.776Z,18.51
2023-04-10T07:59:30.700Z,18.49
2023-04-10T08:00:34.346Z,18.46
2023-04-10T08:01:37.411Z,18.43
2023-04-10T08:02:43.346Z,18.42
2023-04-10T08:03:47.824Z,18.43
2023-04-10T08:04:51.295Z,18.36
2023-04-10T08:05:54.372Z,18.31
2023-04-10T08:06:57.355Z,18.32
2023-04-10T08:08:00.361Z,18.36
2023-04-10T08:09:03.353Z,18.41
2023-04-10T08:10:06.623Z,18.43
2023-04-10T08:11:24.816Z,18.48
2023-04-10T08:12:27.659Z,18.55
2023-04-10T08:13:30.523Z,18.55
2023-04-10T08:14:33.376Z,18.49
2023-04-10T08:15:36.284Z,18.44
2023-04-10T08:16:39.670Z,18.42
2023-04-10T08:17:42.608Z,18.38
2023-04-10T08:18:45.845Z,18.39
2023-04-10T08:19:48.683Z,18.43
2023-04-10T08:20:51.690Z,18.47
2023-04-10T08:21:54.548Z,18.47
2023-04-10T08:23:03.129Z,18.47
2023-04-10T08:24:16.091Z,18.47
2023-04-10T08:25:19.003Z,18.48
2023-04-10T08:26:22.249Z,18.47
2023-04-10T08:27:25.391Z,18.45
2023-04-10T08:28:28.296Z,18.45
2023-04-10T08:29:31.252Z,18.48
2023-04-10T08:30:34.146Z,18.45
2023-04-10T08:31:37.089Z,18.43
2023-04-10T08:32:40.213Z,18.44
2023-04-10T08:33:43.171Z,18.35
2023-04-10T08:34:46.099Z,18.22
2023-04-10T08:35:51.820Z,18.10
2023-04-10T08:36:55.680Z,18.02
2023-04-10T08:38:12.525Z,17.99
2023-04-10T08:39:18.512Z,18.03
2023-04-10T08:40:21.531Z,18.10
2023-04-10T08:41:24.452Z,18.21
2023-04-10T08:42:27.546Z,18.28
2023-04-10T08:43:30.520Z,18.31
2023-04-10T08:44:33.614Z,18.31
2023-04-10T08:45:36.488Z,18.34
2023-04-10T08:46:43.744Z,18.40
2023-04-10T08:47:51.661Z,18.45
2023-04-10T08:49:22.940Z,18.45
2023-04-10T08:50:33.526Z,18.42
2023-04-10T08:51:39.821Z,18.37
2023-04-10T08:52:45.471Z,18.35
2023-04-10T08:53:51.659Z,18.34
2023-04-10T08:54:56.700Z,18.27
2023-04-10T08:56:03.234Z,18.21
2023-04-10T08:57:09.182Z,18.16
2023-04-10T08:58:14.075Z,18.19
2023-04-10T08:59:17.386Z,18.25
2023-04-10T09:00:23.297Z,18.26
2023-04-10T09:01:26.628Z,18.25
2023-04-10T09:02:29.738Z,18.24
2023-04-10T09:03:33.089Z,18.23
2023-04-10T09:04:36.957Z,18.20
2023-04-10T09:05:40.071Z,18.17
2023-04-10T09:06:43.277Z,18.15
2023-04-10T09:07:46.125Z,18.17
2023-04-10T09:08:48.996Z,18.16
2023-04-10T09:09:51.947Z,18.17
2023-04-10T09:10:56.322Z,18.21
2023-04-10T09:12:01.626Z,18.24
2023-04-10T09:13:04.946Z,18.32
2023-04-10T09:14:21.307Z,18.45
2023-04-10T09:15:24.645Z,18.53
2023-04-10T09:16:30.495Z,18.63
2023-04-10T09:17:37.774Z,18.75
2023-04-10T09:18:48.818Z,18.74
2023-04-10T09:19:56.459Z,18.77
2023-04-10T09:21:07.265Z,18.86
2023-04-10T09:22:10.676Z,18.95
2023-04-10T09:23:21.572Z,19.10
2023-04-10T09:24:25.394Z,19.21
2023-04-10T09:25:34.589Z,19.34
2023-04-10T09:26:37.516Z,19.47
2023-04-10T09:27:42.304Z,19.51
2023-04-10T09:29:00.246Z,19.51
2023-04-10T09:30:04.554Z,19.54
2023-04-10T09:31:28.756Z,19.56
2023-04-10T09:32:45.835Z,19.66
2023-04-10T09:33:48.688Z,19.84
2023-04-10T09:34:58.547Z,19.97
2023-04-10T09:36:01.427Z,20.10
2023-04-10T09:37:04.602Z,20.20
2023-04-10T09:38:17.945Z,20.32
2023-04-10T09:39:21.302Z,20.45
2023-04-10T09:40:25.769Z,20.57
2023-04-10T09:41:28.880Z,20.70
2023-04-10T09:42:32.758Z,20.79
2023-04-10T09:43:36.076Z,20.79
2023-04-10T09:44:40.644Z,20.75
2023-04-10T09:45:52.019Z,20.71
2023-04-10T09:46:55.705Z,20.62
2023-04-10T09:48:08.716Z,20.55
2023-04-10T09:49:11.767Z,20.46
2023-04-10T09:50:14.718Z,20.49
2023-04-10T09:51:34.947Z,20.49
2023-04-10T09:52:38.395Z,20.49
2023-04-10T09:53:51.159Z,20.50
2023-04-10T09:54:55.814Z,20.43
2023-04-10T09:55:59.181Z,20.42
2023-04-10T09:57:02.924Z,20.43
2023-04-10T09:58:06.650Z,20.46
2023-04-10T09:59:10.438Z,20.56
2023-04-10T10:00:14.874Z,20.60
2023-04-10T10:01:18.249Z,20.71
2023-04-10T10:02:23.148Z,20.86
2023-04-10T10:03:27.021Z,20.98
2023-04-10T10:04:30.357Z,21.08
2023-04-10T10:05:36.480Z,21.20
2023-04-10T10:06:39.888Z,21.24
2023-04-10T10:07:42.908Z,21.29
2023-04-10T10:08:45.901Z,21.32
2023-04-10T10:09:51.778Z,21.40
2023-04-10T10:10:59.268Z,21.42
2023-04-10T10:12:04.025Z,21.46
2023-04-10T10:13:09.010Z,21.51
2023-04-10T10:14:17.524Z,21.57
2023-04-10T10:15:39.424Z,21.66
2023-04-10T10:16:52.620Z,21.80
2023-04-10T10:18:07.922Z,21.79
2023-04-10T10:19:17.910Z,21.73
2023-04-10T10:20:24.077Z,21.67
2023-04-10T10:21:29.599Z,21.67
2023-04-10T10:22:32.847Z,21.71
2023-04-10T10:23:37.550Z,21.88
2023-04-10T10:24:45.852Z,22.00
2023-04-10T10:25:50.579Z,22.06
2023-04-10T10:26:55.765Z,22.09
2023-04-10T10:28:02.821Z,22.17
2023-04-10T10:29:10.680Z,22.26
2023-04-10T10:30:28.070Z,22.31
2023-04-10T10:31:33.991Z,22.27
2023-04-10T10:32:37.180Z,22.22
2023-04-10T10:33:41.197Z,22.17
2023-04-10T10:34:44.985Z,22.10
2023-04-10T10:35:47.978Z,22.01
2023-04-10T10:36:51.130Z,21.88
2023-04-10T10:37:55.214Z,21.72
2023-04-10T10:39:36.734Z,21.58
2023-04-10T10:41:02.693Z,21.39
2023-04-10T10:42:08.473Z,21.20
2023-04-10T10:43:14.362Z,21.10
2023-04-10T10:44:37.449Z,21.05
2023-04-10T10:45:50.438Z,20.94
2023-04-10T10:47:07.983Z,20.83
2023-04-10T10:48:11.372Z,20.71
2023-04-10T10:49:14.217Z,20.64
2023-04-10T10:50:17.111Z,20.59
2023-04-10T10:51:20.025Z,20.53
2023-04-10T10:52:38.661Z,20.48
2023-04-10T10:53:45.281Z,20.50
2023-04-10T10:54:58.896Z,20.56
2023-04-10T10:56:22.804Z,20.63
2023-04-10T10:57:54.738Z,20.75
2023-04-10T10:58:59.282Z,20.93
2023-04-10T11:00:02.807Z,21.00
2023-04-10T11:01:09.800Z,21.07
2023-04-10T11:02:16.295Z,21.11
2023-04-10T11:03:19.534Z,21.19
2023-04-10T11:04:42.506Z,21.30
2023-04-10T11:05:57.186Z,21.40
2023-04-10T11:07:00.054Z,21.52
2023-04-10T11:08:02.971Z,21.64
2023-04-10T11:09:05.954Z,21.72
2023-04-10T11:10:09.249Z,21.77
2023-04-10T11:11:18.622Z,21.94
2023-04-10T11:12:25.584Z,22.09
2023-04-10T11:13:28.912Z,22.21
2023-04-10T11:14:33.349Z,22.29
2023-04-10T11:15:36.865Z,22.42
2023-04-10T11:16:44.374Z,22.51
2023-04-10T11:17:54.598Z,22.47
2023-04-10T11:19:20.753Z,22.36
2023-04-10T11:20:27.524Z,22.18
2023-04-10T11:21:31.664Z,22.00
2023-04-10T11:23:11.286Z,21.87
2023-04-10T11:24:14.290Z,21.64
2023-04-10T11:25:17.307Z,21.45
2023-04-10T11:26:35.842Z,21.33
2023-04-10T11:27:46.325Z,21.19
2023-04-10T11:28:49.306Z,20.97
2023-04-10T11:29:52.758Z,20.81
2023-04-10T11:30:56.434Z,20.68
2023-04-10T11:32:01.795Z,20.51
2023-04-10T11:33:05.962Z,20.31
2023-04-10T11:34:13.366Z,20.21
2023-04-10T11:35:20.017Z,20.24
2023-04-10T11:36:24.375Z,20.36
2023-04-10T11:37:27.547Z,20.51
2023-04-10T11:38:30.738Z,20.64
2023-04-10T11:39:33.711Z,20.81
2023-04-10T11:40:54.557Z,20.98
2023-04-10T11:41:58.015Z,21.20
2023-04-10T11:43:19.128Z,21.39
2023-04-10T11:44:31.571Z,21.66
2023-04-10T11:45:34.518Z,21.91
2023-04-10T11:46:39.422Z,22.11
2023-04-10T11:47:42.322Z,22.24
2023-04-10T11:48:45.642Z,22.37
2023-04-10T11:49:55.970Z,22.40
2023-04-10T11:51:01.705Z,22.34
2023-04-10T11:52:04.748Z,22.27
2023-04-10T11:53:21.660Z,22.11
2023-04-10T11:54:26.457Z,21.86
2023-04-10T11:55:39.475Z,21.70
2023-04-10T11:56:44.721Z,21.62
2023-04-10T11:57:47.656Z,21.68
2023-04-10T11:58:54.342Z,21.80
2023-04-10T11:59:59.174Z,21.94
2023-04-10T12:01:03.147Z,22.13
2023-04-10T12:02:12.907Z,22.30
2023-04-10T12:03:16.134Z,22.47
2023-04-10T12:04:21.966Z,22.68
2023-04-10T12:05:25.025Z,22.84
2023-04-10T12:06:28.204Z,22.98
2023-04-10T12:07:32.651Z,23.07
2023-04-10T12:08:38.882Z,23.19
2023-04-10T12:09:42.791Z,23.33
2023-04-10T12:10:47.040Z,23.44
2023-04-10T12:12:01.558Z,23.59
2023-04-10T12:13:05.688Z,23.76
2023-04-10T12:14:09.095Z,23.93
2023-04-10T12:15:30.957Z,24.12
2023-04-10T12:16:34.121Z,24.38
2023-04-10T12:17:37.162Z,24.57
2023-04-10T12:18:40.588Z,24.50
2023-04-10T12:19:44.016Z,24.35
2023-04-10T12:20:47.535Z,24.31
2023-04-10T12:21:50.499Z,24.42
2023-04-10T12:22:56.506Z,24.54
2023-04-10T12:23:59.371Z,24.52
2023-04-10T12:25:02.539Z,24.40
2023-04-10T12:26:14.382Z,24.43
2023-04-10T12:27:27.750Z,24.59
2023-04-10T12:28:30.904Z,24.71
2023-04-10T12:29:33.937Z,24.84
2023-04-10T12:30:36.855Z,24.98
2023-04-10T12:31:39.999Z,25.11
2023-04-10T12:32:52.495Z,25.23
2023-04-10T12:33:57.989Z,25.26
2023-04-10T12:35:01.568Z,25.38
2023-04-10T12:36:04.736Z,25.51
2023-04-10T12:37:09.902Z,25.65
2023-04-10T12:38:12.833Z,25.74
2023-04-10T12:39:24.136Z,25.81
2023-04-10T12:40:27.731Z,25.89
2023-04-10T12:41:32.845Z,25.90
2023-04-10T12:42:42.013Z,25.90
2023-04-10T12:43:45.087Z,25.93
2023-04-10T12:44:59.041Z,25.96
2023-04-10T12:46:02.828Z,26.05
2023-04-10T12:47:05.875Z,26.08
2023-04-10T12:48:08.779Z,26.09
2023-04-10T12:49:17.171Z,26.10
2023-04-10T12:50:21.169Z,26.13
2023-04-10T12:51:43.829Z,26.19
2023-04-10T12:53:02.633Z,26.25
2023-04-10T12:54:05.852Z,26.29
2023-04-10T12:55:12.846Z,26.27
2023-04-10T12:56:18.036Z,26.16
2023-04-10T12:57:27.746Z,25.94
2023-04-10T12:58:31.738Z,25.60
2023-04-10T12:59:34.617Z,25.25
2023-04-10T13:00:37.585Z,24.93
2023-04-10T13:01:40.586Z,24.67
2023-04-10T13:02:43.859Z,24.37
2023-04-10T13:03:49.098Z,24.12
2023-04-10T13:04:53.001Z,23.89
2023-04-10T13:05:56.457Z,23.65
2023-04-10T13:06:59.332Z,23.40
2023-04-10T13:08:02.529Z,23.22
2023-04-10T13:09:05.367Z,23.06
2023-04-10T13:10:09.216Z,22.90
2023-04-10T13:11:12.251Z,22.76
2023-04-10T13:12:15.118Z,22.68
2023-04-10T13:13:18.361Z,22.55
2023-04-10T13:14:21.689Z,22.43
2023-04-10T13:15:24.566Z,22.33
2023-04-10T13:16:27.389Z,22.21
2023-04-10T13:17:30.456Z,22.18
2023-04-10T13:18:33.537Z,22.17
2023-04-10T13:19:36.471Z,22.10
2023-04-10T13:20:41.164Z,22.06
2023-04-10T13:21:44.782Z,22.01
2023-04-10T13:22:47.731Z,22.00
2023-04-10T13:23:50.666Z,21.98
2023-04-10T13:24:53.607Z,21.97
2023-04-10T13:25:59.030Z,21.94
2023-04-10T13:27:02.331Z,21.88
2023-04-10T13:28:10.316Z,21.83
2023-04-10T13:29:13.252Z,21.69
2023-04-10T13:30:16.180Z,21.58
2023-04-10T13:31:19.162Z,21.46
2023-04-10T13:32:22.036Z,21.34
2023-04-10T13:33:25.058Z,21.25
2023-04-10T13:34:28.189Z,21.15
2023-04-10T13:35:31.394Z,21.08
2023-04-10T13:36:34.505Z,21.03
2023-04-10T13:37:37.430Z,20.93
2023-04-10T13:38:40.411Z,20.82
2023-04-10T13:39:43.709Z,20.70
2023-04-10T13:40:46.663Z,20.62
2023-04-10T13:41:49.508Z,20.61
2023-04-10T13:42:52.524Z,20.60
2023-04-10T13:43:55.625Z,20.60
2023-04-10T13:44:58.732Z,20.62
2023-04-10T13:46:01.886Z,20.68
2023-04-10T13:47:04.788Z,20.77
2023-04-10T13:48:07.875Z,20.87
2023-04-10T13:49:10.865Z,20.98
2023-04-10T13:50:13.989Z,21.10
2023-04-10T13:51:16.883Z,21.20
2023-04-10T13:52:19.712Z,21.31
2023-04-10T13:53:22.570Z,21.40
2023-04-10T13:54:26.592Z,21.48
2023-04-10T13:55:29.474Z,21.52
2023-04-10T13:56:32.354Z,21.54
2023-04-10T13:57:35.324Z,21.55
2023-04-10T13:58:38.204Z,21.55
2023-04-10T13:59:41.742Z,21.55
2023-04-10T14:00:44.819Z,21.53
2023-04-10T14:01:51.036Z,21.52
2023-04-10T14:02:54.242Z,21.52
2023-04-10T14:03:57.406Z,21.52
2023-04-10T14:05:00.340Z,21.54
2023-04-10T14:06:03.194Z,21.50
2023-04-10T14:07:06.104Z,21.40
2023-04-10T14:08:11.803Z,21.35
2023-04-10T14:09:14.767Z,21.31
2023-04-10T14:10:17.643Z,21.26
2023-04-10T14:11:20.888Z,21.19
2023-04-10T14:12:23.790Z,21.12
2023-04-10T14:13:27.369Z,21.07
2023-04-10T14:14:30.796Z,20.98
2023-04-10T14:15:33.877Z,20.88
2023-04-10T14:16:36.870Z,20.73
2023-04-10T14:17:39.851Z,20.61
2023-04-10T14:18:42.786Z,20.53
2023-04-10T14:19:51.543Z,20.43
2023-04-10T14:20:54.664Z,20.33
2023-04-10T14:21:57.516Z,20.23
2023-04-10T14:23:00.358Z,20.14
2023-04-10T14:24:03.370Z,20.03
2023-04-10T14:25:12.956Z,19.89
2023-04-10T14:26:16.771Z,19.75
2023-04-10T14:27:19.592Z,19.62
2023-04-10T14:28:22.708Z,19.48
2023-04-10T14:29:34.866Z,19.39
2023-04-10T14:30:40.591Z,19.28
2023-04-10T14:31:56.724Z,19.13
2023-04-10T14:33:00.448Z,18.98
2023-04-10T14:34:03.436Z,18.87
2023-04-10T14:35:06.870Z,18.77
2023-04-10T14:36:10.167Z,18.71
2023-04-10T14:37:15.297Z,18.65
2023-04-10T14:38:18.541Z,18.61
2023-04-10T14:39:24.960Z,18.56
2023-04-10T14:40:27.861Z,18.57